createdAt,value
2023-05-21T00:00:31.301Z,8.60
2023-05-21T00:02:59.175Z,8.35
2023-05-21T00:05:26.496Z,8.30
2023-05-21T00:07:54.939Z,9.43
2023-05-21T00:10:22.171Z,9.68
2023-05-21T00:12:49.122Z,7.90
2023-05-21T00:15:16.114Z,8.10
2023-05-21T00:17:43.694Z,9.45
2023-05-21T00:20:11.086Z,8.87
2023-05-21T00:22:38.079Z,8.40
2023-05-21T00:25:05.300Z,9.93
2023-05-21T00:27:32.359Z,9.48
2023-05-21T00:29:59.363Z,9.00
2023-05-21T00:32:26.641Z,8.95
2023-05-21T00:34:54.253Z,7.80
2023-05-21T00:37:21.866Z,8.23
2023-05-21T00:39:48.819Z,8.00
2023-05-21T00:42:18.153Z,8.52
2023-05-21T00:44:45.637Z,8.48
2023-05-21T00:47:18.366Z,8.95
2023-05-21T00:49:45.621Z,8.80
2023-05-21T00:52:12.636Z,8.88
2023-05-21T00:54:39.810Z,8.90
2023-05-21T00:57:06.895Z,9.30
2023-05-21T00:59:34.176Z,8.10
2023-05-21T01:02:04.307Z,8.05
2023-05-21T01:04:32.233Z,10.02
2023-05-21T01:06:59.282Z,7.95
2023-05-21T01:09:27.056Z,9.13
2023-05-21T01:11:55.825Z,8.75
2023-05-21T01:14:24.173Z,9.27
2023-05-21T01:16:52.487Z,9.30
2023-05-21T01:19:22.126Z,9.17
2023-05-21T01:22:09.928Z,9.55
2023-05-21T01:24:37.036Z,9.33
2023-05-21T01:27:07.680Z,8.93
2023-05-21T01:29:34.773Z,9.82
2023-05-21T01:32:04.596Z,10.23
2023-05-21T01:34:45.980Z,9.45
2023-05-21T01:37:26.858Z,10.07
2023-05-21T01:40:08.912Z,10.00
2023-05-21T01:42:38.998Z,9.88
2023-05-21T01:45:08.024Z,9.85
2023-05-21T01:47:37.023Z,9.40
2023-05-21T01:50:05.674Z,11.30
2023-05-21T01:52:32.752Z,10.10
2023-05-21T01:55:00.441Z,10.70
2023-05-21T01:57:27.605Z,11.13
2023-05-21T01:59:56.307Z,10.35
2023-05-21T02:02:23.285Z,10.50
2023-05-21T02:04:50.471Z,11.10
2023-05-21T02:07:18.834Z,9.82
2023-05-21T02:09:45.915Z,10.38
2023-05-21T02:12:12.932Z,11.10
2023-05-21T02:14:39.896Z,11.00
2023-05-21T02:17:08.230Z,10.80
2023-05-21T02:19:35.349Z,11.35
2023-05-21T02:22:02.578Z,10.43
2023-05-21T02:24:29.579Z,10.83
2023-05-21T02:26:56.687Z,11.00
2023-05-21T02:29:23.745Z,11.30
2023-05-21T02:31:51.406Z,11.30
2023-05-21T02:34:23.164Z,11.00
2023-05-21T02:36:52.419Z,12.20
2023-05-21T02:39:19.986Z,11.50
2023-05-21T02:41:47.315Z,11.50
2023-05-21T02:44:14.375Z,13.00
2023-05-21T02:46:41.375Z,11.55
2023-05-21T02:49:08.412Z,11.90
2023-05-21T02:51:35.532Z,11.48
2023-05-21T02:54:02.514Z,12.57
2023-05-21T02:56:29.544Z,11.40
2023-05-21T02:58:56.628Z,11.77
2023-05-21T03:01:23.778Z,12.48
2023-05-21T03:03:50.862Z,11.55
2023-05-21T03:06:18.006Z,11.20
2023-05-21T03:08:45.006Z,11.20
2023-05-21T03:11:12.087Z,11.70
2023-05-21T03:13:39.286Z,12.15
2023-05-21T03:16:06.357Z,11.55
2023-05-21T03:18:33.386Z,12.80
2023-05-21T03:21:00.408Z,13.27
2023-05-21T03:23:27.500Z,12.18
2023-05-21T03:25:54.496Z,12.50
2023-05-21T03:28:21.533Z,12.07
2023-05-21T03:30:52.174Z,11.93
2023-05-21T03:33:19.970Z,13.70
2023-05-21T03:35:47.083Z,12.30
2023-05-21T03:38:14.230Z,11.97
2023-05-21T03:40:41.180Z,12.80
2023-05-21T03:43:08.394Z,12.48
2023-05-21T03:45:35.814Z,13.00
2023-05-21T03:48:03.200Z,13.25
2023-05-21T03:50:30.201Z,13.68
2023-05-21T03:52:57.567Z,12.57
2023-05-21T03:55:24.672Z,12.40
2023-05-21T03:57:51.659Z,12.38
2023-05-21T04:00:18.924Z,12.80
2023-05-21T04:02:46.013Z,12.85
2023-05-21T04:05:13.093Z,12.38
2023-05-21T04:07:40.042Z,12.50
2023-05-21T04:10:07.614Z,13.70
2023-05-21T04:12:34.644Z,12.57
2023-05-21T04:15:02.681Z,14.00
2023-05-21T04:17:29.754Z,13.30
2023-05-21T04:19:56.817Z,13.40
2023-05-21T04:22:26.563Z,14.23
2023-05-21T04:24:54.700Z,14.15
2023-05-21T04:27:23.820Z,14.32
2023-05-21T04:29:51.049Z,14.55
2023-05-21T04:32:18.129Z,13.40
2023-05-21T04:34:45.272Z,13.93
2023-05-21T04:37:12.386Z,13.30
2023-05-21T04:39:41.126Z,13.85
2023-05-21T04:42:11.009Z,14.05
2023-05-21T04:44:40.340Z,13.98
2023-05-21T04:47:08.091Z,14.05
2023-05-21T04:49:35.335Z,14.13
2023-05-21T04:52:02.773Z,13.57
2023-05-21T04:54:30.090Z,14.23
2023-05-21T04:56:58.173Z,13.75
2023-05-21T04:59:25.309Z,12.77
2023-05-21T05:01:52.771Z,13.40
2023-05-21T05:04:19.868Z,13.98
2023-05-21T05:06:47.337Z,13.13
2023-05-21T05:09:14.498Z,13.25
2023-05-21T05:11:41.483Z,13.30
2023-05-21T05:14:08.617Z,13.32
2023-05-21T05:16:36.414Z,13.93
2023-05-21T05:19:03.528Z,14.10
2023-05-21T05:21:30.782Z,14.10
2023-05-21T05:23:57.812Z,14.48
2023-05-21T05:26:25.514Z,15.07
2023-05-21T05:28:52.784Z,15.10
2023-05-21T05:31:19.813Z,14.20
2023-05-21T05:33:47.155Z,14.60
2023-05-21T05:36:14.231Z,14.15
2023-05-21T05:38:41.285Z,13.93
2023-05-21T05:41:08.502Z,14.55
2023-05-21T05:43:35.602Z,14.02
2023-05-21T05:46:02.669Z,16.02
2023-05-21T05:48:29.771Z,15.00
2023-05-21T05:50:57.205Z,17.73
2023-05-21T05:53:24.443Z,16.88
2023-05-21T05:55:51.410Z,17.17
2023-05-21T05:58:18.490Z,19.23
2023-05-21T06:00:45.586Z,17.05
2023-05-21T06:03:12.755Z,16.92
2023-05-21T06:05:40.100Z,17.30
2023-05-21T06:08:07.515Z,16.80
2023-05-21T06:10:34.611Z,16.83
2023-05-21T06:13:01.647Z,16.37
2023-05-21T06:15:28.658Z,16.92
2023-05-21T06:17:55.806Z,16.20
2023-05-21T06:20:22.810Z,16.75
2023-05-21T06:22:49.813Z,15.40
2023-05-21T06:25:16.939Z,16.98
2023-05-21T06:27:44.055Z,16.42
2023-05-21T06:30:11.287Z,15.00
2023-05-21T06:32:38.304Z,17.00
2023-05-21T06:35:06.279Z,17.73
2023-05-21T06:37:33.323Z,15.88
2023-05-21T06:40:00.470Z,16.90
2023-05-21T06:42:27.473Z,16.08
2023-05-21T06:44:54.645Z,17.00
2023-05-21T06:47:21.723Z,17.03
2023-05-21T06:49:48.777Z,18.00
2023-05-21T06:52:16.004Z,18.52
2023-05-21T06:54:43.098Z,17.52
2023-05-21T06:57:10.179Z,17.92
2023-05-21T06:59:37.224Z,18.40
2023-05-21T07:02:04.721Z,18.63
2023-05-21T07:04:32.184Z,18.67
2023-05-21T07:06:59.141Z,17.45
2023-05-21T07:09:26.194Z,18.10
2023-05-21T07:11:53.424Z,18.23
2023-05-21T07:14:20.596Z,18.15
2023-05-21T07:16:47.666Z,17.63
2023-05-21T07:19:15.496Z,16.95
2023-05-21T07:21:42.547Z,16.55
2023-05-21T07:24:09.588Z,16.70
2023-05-21T07:26:36.738Z,16.10
2023-05-21T07:29:03.895Z,16.23
2023-05-21T07:31:31.067Z,16.77
2023-05-21T07:33:58.178Z,17.40
2023-05-21T07:36:26.515Z,16.40
2023-05-21T07:38:53.918Z,16.70
2023-05-21T07:41:22.063Z,16.17
2023-05-21T07:43:49.424Z,16.60
2023-05-21T07:46:16.533Z,15.88
2023-05-21T07:48:43.778Z,16.45
2023-05-21T07:51:11.689Z,16.30
2023-05-21T07:53:38.831Z,15.30
2023-05-21T07:56:06.714Z,16.02
2023-05-21T07:58:35.262Z,14.98
2023-05-21T08:01:03.055Z,14.50
2023-05-21T08:03:33.021Z,15.00
2023-05-21T08:06:00.175Z,14.40
2023-05-21T08:08:27.527Z,15.38
2023-05-21T08:10:54.684Z,14.75
2023-05-21T08:13:22.061Z,14.00
2023-05-21T08:15:52.048Z,14.43
2023-05-21T08:18:20.195Z,13.90
2023-05-21T08:20:48.483Z,13.90
2023-05-21T08:23:15.678Z,13.38
2023-05-21T08:25:42.960Z,13.80
2023-05-21T08:28:10.026Z,12.73
2023-05-21T08:30:37.367Z,14.03
2023-05-21T08:33:04.595Z,13.67
2023-05-21T08:35:31.811Z,13.60
2023-05-21T08:37:59.562Z,13.93
2023-05-21T08:40:26.800Z,13.73
2023-05-21T08:42:54.086Z,12.98
2023-05-21T08:45:22.362Z,13.70
2023-05-21T08:47:57.631Z,14.63
2023-05-21T08:50:28.836Z,14.40
2023-05-21T08:52:56.432Z,13.43
2023-05-21T08:55:24.393Z,13.73
2023-05-21T08:57:54.746Z,14.45
2023-05-21T09:00:22.152Z,14.60
2023-05-21T09:02:49.301Z,12.48
2023-05-21T09:05:17.104Z,13.65
2023-05-21T09:07:52.829Z,14.40
2023-05-21T09:10:24.150Z,13.65
2023-05-21T09:12:51.503Z,13.75
2023-05-21T09:15:18.988Z,14.48
2023-05-21T09:17:49.228Z,13.90
2023-05-21T09:20:16.782Z,14.02
2023-05-21T09:22:46.138Z,13.50
2023-05-21T09:25:16.330Z,13.52
2023-05-21T09:27:43.898Z,15.20
2023-05-21T09:30:13.479Z,14.82
2023-05-21T09:32:41.491Z,14.82
2023-05-21T09:35:13.574Z,15.57
2023-05-21T09:37:47.358Z,14.48
2023-05-21T09:40:23.171Z,14.20
2023-05-21T09:42:54.651Z,14.63
2023-05-21T09:45:26.520Z,15.10
2023-05-21T09:47:55.294Z,13.80
2023-05-21T09:50:28.457Z,14.77
2023-05-21T09:52:56.435Z,13.70
2023-05-21T09:55:25.432Z,15.10
2023-05-21T09:57:53.436Z,14.37
2023-05-21T10:00:25.309Z,14.32
2023-05-21T10:02:56.871Z,14.75
2023-05-21T10:05:29.437Z,15.15
2023-05-21T10:08:02.184Z,14.30
2023-05-21T10:10:30.687Z,15.30
2023-05-21T10:13:10.238Z,13.73
2023-05-21T10:15:42.488Z,14.27
2023-05-21T10:18:12.428Z,13.23
2023-05-21T10:20:40.151Z,14.50
2023-05-21T10:23:07.858Z,13.77
2023-05-21T10:25:36.202Z,14.13
2023-05-21T10:28:03.540Z,15.02
2023-05-21T10:30:31.071Z,14.10
2023-05-21T10:32:59.802Z,14.20
2023-05-21T10:35:27.725Z,14.88
2023-05-21T10:37:57.151Z,14.85
2023-05-21T10:40:24.186Z,17.02
2023-05-21T10:43:18.591Z,15.00
2023-05-21T10:46:00.388Z,14.50
2023-05-21T10:48:51.057Z,14.60
2023-05-21T10:51:27.148Z,15.60
2023-05-21T10:54:03.133Z,14.48
2023-05-21T10:56:30.129Z,14.60
2023-05-21T10:59:12.568Z,14.30
2023-05-21T11:01:42.199Z,14.43
2023-05-21T11:04:09.946Z,14.83
2023-05-21T11:06:36.978Z,13.65
2023-05-21T11:09:14.653Z,13.60
2023-05-21T11:11:48.491Z,15.70
2023-05-21T11:14:42.142Z,15.80
2023-05-21T11:17:13.974Z,16.73
2023-05-21T11:19:48.043Z,15.15
2023-05-21T11:22:21.647Z,15.02
2023-05-21T11:24:51.174Z,15.40
2023-05-21T11:27:37.741Z,14.50
2023-05-21T11:30:06.069Z,14.88
2023-05-21T11:32:36.561Z,14.27
2023-05-21T11:35:03.769Z,13.90
2023-05-21T11:37:33.255Z,14.00
2023-05-21T11:40:20.520Z,14.43
2023-05-21T11:42:55.284Z,14.18
2023-05-21T11:45:32.840Z,13.35
2023-05-21T11:48:00.731Z,14.45
2023-05-21T11:50:30.658Z,14.13
2023-05-21T11:52:59.924Z,13.73
2023-05-21T11:55:27.456Z,15.25
2023-05-21T11:57:55.545Z,14.40
2023-05-21T12:00:23.210Z,14.23
2023-05-21T12:02:53.995Z,13.77
2023-05-21T12:05:21.860Z,13.70
2023-05-21T12:07:52.544Z,13.90
2023-05-21T12:10:24.132Z,13.27
2023-05-21T12:12:56.412Z,13.75
2023-05-21T12:15:26.180Z,13.80
2023-05-21T12:17:54.385Z,13.43
2023-05-21T12:20:21.986Z,12.85
2023-05-21T12:22:50.263Z,13.55
2023-05-21T12:25:21.256Z,13.02
2023-05-21T12:27:52.691Z,12.80
2023-05-21T12:30:21.279Z,13.20
2023-05-21T12:32:49.442Z,13.38
2023-05-21T12:35:24.505Z,13.45
2023-05-21T12:37:52.098Z,13.15
2023-05-21T12:40:19.830Z,13.35
2023-05-21T12:42:47.090Z,13.10
2023-05-21T12:45:14.746Z,13.20
2023-05-21T12:47:42.036Z,12.73
2023-05-21T12:50:12.348Z,12.80
2023-05-21T12:52:41.104Z,12.52
2023-05-21T12:55:10.523Z,12.40
2023-05-21T12:57:41.576Z,13.17
2023-05-21T13:00:10.423Z,13.15
2023-05-21T13:02:45.887Z,12.70
2023-05-21T13:05:20.229Z,13.30
2023-05-21T13:07:47.879Z,13.23
2023-05-21T13:10:18.931Z,13.02
2023-05-21T13:12:46.596Z,12.02
2023-05-21T13:15:14.478Z,14.80
2023-05-21T13:17:41.659Z,12.45
2023-05-21T13:20:18.428Z,12.45
2023-05-21T13:22:47.399Z,11.95
2023-05-21T13:25:16.825Z,12.13
2023-05-21T13:27:44.512Z,12.00
2023-05-21T13:30:12.234Z,11.93
2023-05-21T13:32:40.968Z,12.52
2023-05-21T13:35:08.556Z,12.57
2023-05-21T13:37:38.578Z,11.93
2023-05-21T13:40:07.330Z,12.40
2023-05-21T13:42:35.463Z,12.40
2023-05-21T13:45:02.624Z,12.27
2023-05-21T13:47:29.611Z,12.80
2023-05-21T13:49:56.816Z,12.10
2023-05-21T13:52:23.984Z,12.77
2023-05-21T13:54:51.298Z,11.85
2023-05-21T13:57:18.522Z,12.40
2023-05-21T13:59:45.623Z,12.98
2023-05-21T14:02:12.779Z,12.65
2023-05-21T14:04:40.036Z,12.65
2023-05-21T14:07:07.660Z,12.20
2023-05-21T14:09:34.878Z,11.60
2023-05-21T14:12:03.903Z,11.48
2023-05-21T14:14:32.396Z,11.52
2023-05-21T14:16:59.936Z,11.50
2023-05-21T14:19:27.298Z,11.43
2023-05-21T14:21:54.778Z,12.40
2023-05-21T14:24:21.806Z,11.03
2023-05-21T14:26:48.974Z,11.50
2023-05-21T14:29:16.283Z,11.60
2023-05-21T14:31:43.548Z,11.60
2023-05-21T14:34:10.709Z,11.55
2023-05-21T14:36:37.944Z,12.57
2023-05-21T14:39:05.094Z,11.70
2023-05-21T14:41:32.253Z,11.60
2023-05-21T14:43:59.307Z,11.25
2023-05-21T14:46:26.518Z,12.25
2023-05-21T14:48:55.439Z,11.88
2023-05-21T14:51:22.675Z,11.55
2023-05-21T14:53:50.030Z,11.45
2023-05-21T14:56:17.256Z,11.77
2023-05-21T14:58:44.338Z,11.23
2023-05-21T15:01:12.063Z,12.43
2023-05-21T15:03:39.174Z,11.40
2023-05-21T15:06:06.419Z,11.10
2023-05-21T15:08:33.491Z,11.57
2023-05-21T15:11:00.685Z,11.20
2023-05-21T15:13:27.678Z,11.52
2023-05-21T15:15:54.989Z,11.75
2023-05-21T15:18:22.173Z,11.95
2023-05-21T15:20:49.179Z,11.90
2023-05-21T15:23:17.691Z,12.05
2023-05-21T15:25:45.850Z,11.80
2023-05-21T15:28:13.187Z,11.35
2023-05-21T15:30:40.814Z,12.43
2023-05-21T15:33:07.995Z,10.80
2023-05-21T15:35:36.623Z,11.10
2023-05-21T15:38:04.152Z,10.93
2023-05-21T15:40:32.320Z,10.73
2023-05-21T15:42:59.499Z,11.57
2023-05-21T15:45:26.636Z,10.40
2023-05-21T15:47:53.655Z,10.15
2023-05-21T15:50:21.057Z,10.98
2023-05-21T15:52:48.534Z,10.45
2023-05-21T15:55:16.693Z,8.95
2023-05-21T15:57:43.736Z,8.07
2023-05-21T16:00:11.516Z,7.55
2023-05-21T16:02:38.673Z,6.78
2023-05-21T16:05:05.889Z,6.43
2023-05-21T16:07:33.556Z,6.97
2023-05-21T16:10:01.376Z,7.30
2023-05-21T16:12:28.502Z,6.00
2023-05-21T16:14:55.655Z,7.10
2023-05-21T16:17:24.073Z,10.20
2023-05-21T16:19:51.228Z,6.80
2023-05-21T16:22:20.790Z,9.03
2023-05-21T16:24:48.227Z,8.05
2023-05-21T16:27:15.384Z,8.88
2023-05-21T16:29:42.988Z,9.80
2023-05-21T16:32:13.059Z,9.27
2023-05-21T16:34:40.313Z,11.45
2023-05-21T16:37:09.628Z,11.85
2023-05-21T16:39:37.491Z,9.30
2023-05-21T16:42:04.729Z,9.33
2023-05-21T16:44:32.329Z,8.43
2023-05-21T16:47:00.283Z,9.27
2023-05-21T16:49:28.271Z,7.30
2023-05-21T16:51:55.453Z,7.90
2023-05-21T16:54:22.723Z,8.57
2023-05-21T16:56:50.045Z,8.43
2023-05-21T16:59:17.334Z,8.68
2023-05-21T17:01:44.481Z,7.80
2023-05-21T17:04:11.798Z,7.32
2023-05-21T17:06:38.984Z,7.15
2023-05-21T17:09:06.829Z,8.90
2023-05-21T17:11:35.067Z,8.07
2023-05-21T17:14:02.220Z,8.10
2023-05-21T17:16:29.626Z,8.30
2023-05-21T17:18:56.754Z,8.02
2023-05-21T17:21:23.963Z,8.32
2023-05-21T17:23:51.131Z,7.93
2023-05-21T17:26:18.342Z,7.78
2023-05-21T17:28:45.468Z,7.22
2023-05-21T17:31:12.672Z,7.18
2023-05-21T17:33:39.733Z,8.60
2023-05-21T17:36:06.993Z,7.57
2023-05-21T17:38:34.055Z,7.30
2023-05-21T17:41:01.426Z,6.68
2023-05-21T17:43:28.620Z,5.90
2023-05-21T17:45:55.884Z,6.13
2023-05-21T17:48:23.197Z,5.93
2023-05-21T17:50:51.078Z,7.63
2023-05-21T17:53:18.439Z,7.75
2023-05-21T17:55:45.701Z,6.90
2023-05-21T17:58:12.789Z,6.30
2023-05-21T18:00:39.997Z,6.55
2023-05-21T18:03:07.125Z,6.80
2023-05-21T18:05:34.610Z,7.65
2023-05-21T18:08:02.872Z,6.65
2023-05-21T18:10:30.007Z,7.50
2023-05-21T18:12:57.147Z,6.38
2023-05-21T18:15:24.241Z,8.13
2023-05-21T18:17:51.508Z,6.65
2023-05-21T18:20:18.801Z,7.20
2023-05-21T18:22:45.992Z,8.30
2023-05-21T18:25:13.002Z,6.97
2023-05-21T18:27:40.110Z,6.67
2023-05-21T18:30:08.612Z,7.30
2023-05-21T18:32:38.945Z,7.10
2023-05-21T18:35:14.426Z,7.40
2023-05-21T18:37:44.647Z,8.83
2023-05-21T18:40:13.177Z,6.73
2023-05-21T18:42:40.470Z,7.18
2023-05-21T18:45:09.237Z,7.07
2023-05-21T18:47:36.845Z,6.80
2023-05-21T18:50:04.329Z,6.85
2023-05-21T18:52:31.411Z,6.65
2023-05-21T18:54:58.526Z,6.37
2023-05-21T18:57:25.771Z,7.07
2023-05-21T18:59:52.737Z,7.40
2023-05-21T19:02:19.968Z,7.43
2023-05-21T19:04:47.194Z,6.50
2023-05-21T19:07:16.033Z,5.90
2023-05-21T19:09:43.184Z,7.15
2023-05-21T19:12:10.530Z,6.60
2023-05-21T19:14:38.450Z,5.80
2023-05-21T19:17:05.695Z,6.30
2023-05-21T19:19:32.740Z,6.43
2023-05-21T19:22:00.072Z,6.80
2023-05-21T19:24:27.081Z,6.38
2023-05-21T19:26:54.239Z,7.38
2023-05-21T19:29:21.679Z,6.80
2023-05-21T19:31:48.868Z,6.20
2023-05-21T19:34:16.391Z,6.68
2023-05-21T19:36:52.917Z,6.30
2023-05-21T19:39:21.678Z,6.95
2023-05-21T19:41:48.932Z,7.00
2023-05-21T19:44:17.353Z,7.43
2023-05-21T19:46:44.474Z,7.30
2023-05-21T19:49:14.079Z,7.68
2023-05-21T19:51:41.206Z,7.10
2023-05-21T19:54:08.418Z,6.97
2023-05-21T19:56:35.516Z,5.82
2023-05-21T19:59:02.651Z,6.45
2023-05-21T20:01:33.279Z,6.28
2023-05-21T20:04:01.064Z,6.50
2023-05-21T20:06:28.132Z,5.80
2023-05-21T20:08:55.521Z,6.43
2023-05-21T20:11:22.961Z,6.50
2023-05-21T20:13:53.359Z,6.40
2023-05-21T20:16:21.510Z,7.20
2023-05-21T20:18:49.311Z,6.45
2023-05-21T20:21:21.440Z,7.20
2023-05-21T20:23:49.141Z,7.67
2023-05-21T20:26:17.087Z,6.95
2023-05-21T20:28:44.110Z,6.80
2023-05-21T20:31:11.605Z,6.63
2023-05-21T20:33:40.923Z,7.13
2023-05-21T20:36:08.251Z,7.30
2023-05-21T20:38:37.239Z,6.63
2023-05-21T20:41:04.987Z,6.00
2023-05-21T20:43:33.033Z,7.00
2023-05-21T20:46:01.788Z,6.40
2023-05-21T20:48:31.990Z,6.22
2023-05-21T20:51:00.062Z,6.38
2023-05-21T20:53:27.374Z,6.93
2023-05-21T20:55:54.903Z,6.53
2023-05-21T20:58:24.114Z,6.78
2023-05-21T21:00:51.499Z,7.60
2023-05-21T21:03:21.708Z,6.75
2023-05-21T21:05:48.960Z,6.90
2023-05-21T21:08:16.300Z,6.40
2023-05-21T21:10:46.803Z,7.00
2023-05-21T21:13:14.543Z,6.43
2023-05-21T21:15:43.869Z,6.60
2023-05-21T21:18:12.596Z,7.00
2023-05-21T21:20:41.470Z,6.60
2023-05-21T21:23:09.023Z,6.80
2023-05-21T21:25:36.409Z,8.00
2023-05-21T21:28:03.623Z,6.63
2023-05-21T21:30:30.958Z,7.00
2023-05-21T21:32:58.163Z,7.90
2023-05-21T21:35:25.333Z,7.30
2023-05-21T21:37:52.432Z,6.20
2023-05-21T21:40:19.706Z,6.63
2023-05-21T21:42:46.739Z,6.65
2023-05-21T21:45:13.863Z,7.85
2023-05-21T21:47:41.160Z,7.50
2023-05-21T21:50:08.888Z,6.90
2023-05-21T21:52:40.162Z,7.20
2023-05-21T21:55:11.187Z,7.40
2023-05-21T21:57:39.476Z,8.10
2023-05-21T22:00:17.400Z,9.00
2023-05-21T22:02:46.619Z,7.60
2023-05-21T22:05:17.020Z,6.82
2023-05-21T22:07:47.865Z,8.30
2023-05-21T22:10:16.368Z,8.50
2023-05-21T22:12:44.288Z,7.85
2023-05-21T22:15:18.626Z,8.18
2023-05-21T22:17:47.627Z,7.85
2023-05-21T22:20:15.117Z,7.57
2023-05-21T22:22:42.213Z,6.97
2023-05-21T22:25:09.483Z,8.25
2023-05-21T22:27:36.564Z,6.70
2023-05-21T22:30:04.879Z,6.93
2023-05-21T22:32:31.887Z,7.20
2023-05-21T22:34:58.948Z,7.63
2023-05-21T22:37:26.290Z,7.38
2023-05-21T22:39:53.328Z,7.78
2023-05-21T22:42:20.471Z,7.55
2023-05-21T22:44:47.559Z,7.78
2023-05-21T22:47:14.721Z,10.68
2023-05-21T22:49:42.941Z,8.07
2023-05-21T22:52:10.743Z,8.00
2023-05-21T22:54:38.160Z,7.30
2023-05-21T22:57:05.660Z,7.70
2023-05-21T22:59:33.394Z,8.90
2023-05-21T23:02:00.862Z,7.30
2023-05-21T23:04:43.869Z,9.30
2023-05-21T23:07:12.506Z,7.13
2023-05-21T23:09:39.686Z,7.22
2023-05-21T23:12:07.399Z,8.20
2023-05-21T23:14:34.485Z,8.40
2023-05-21T23:17:05.635Z,7.30
2023-05-21T23:19:33.001Z,7.60
2023-05-21T23:22:00.580Z,7.70
2023-05-21T23:24:29.604Z,7.28
2023-05-21T23:27:01.892Z,8.15
2023-05-21T23:29:31.999Z,8.05
2023-05-21T23:32:00.958Z,6.55
2023-05-21T23:34:28.396Z,7.82
2023-05-21T23:36:55.935Z,8.43
2023-05-21T23:39:24.479Z,7.47
2023-05-21T23:41:51.582Z,9.52
2023-05-21T23:44:20.298Z,9.15
2023-05-21T23:46:47.519Z,8.60
2023-05-21T23:49:14.664Z,7.57
2023-05-21T23:51:41.819Z,8.25
2023-05-21T23:54:08.863Z,8.20
2023-05-21T23:56:36.014Z,7.10
2023-05-21T23:59:02.974Z,7.32
